sensor_id;sensor_type;location;lat;lon;timestamp;P1;durP1;ratioP1;P2;durP2;ratioP2
9166;SDS011;4618;48.818;9.088;2023-01-10T00:01:53;0.70;;;0.33;;
9166;SDS011;4618;48.818;9.088;2023-01-10T00:04:20;0.33;;;0.33;;
9166;SDS011;4618;48.818;9.088;2023-01-10T00:06:46;0.50;;;0.40;;
9166;SDS011;4618;48.818;9.088;2023-01-10T00:09:12;0.40;;;0.40;;
9166;SDS011;4618;48.818;9.088;2023-01-10T00:11:37;0.57;;;0.40;;
9166;SDS011;4618;48.818;9.088;2023-01-10T00:14:21;1.50;;;0.67;;
9166;SDS011;4618;48.818;9.088;2023-01-10T00:16:47;1.73;;;0.60;;
9166;SDS011;4618;48.818;9.088;2023-01-10T00:19:12;1.07;;;0.70;;
9166;SDS011;4618;48.818;9.088;2023-01-10T00:21:38;0.60;;;0.53;;
9166;SDS011;4618;48.818;9.088;2023-01-10T00:24:04;0.97;;;0.83;;
9166;SDS011;4618;48.818;9.088;2023-01-10T00:26:43;1.00;;;0.90;;
9166;SDS011;4618;48.818;9.088;2023-01-10T00:29:19;1.87;;;0.80;;
9166;SDS011;4618;48.818;9.088;2023-01-10T00:31:46;2.27;;;1.20;;
9166;SDS011;4618;48.818;9.088;2023-01-10T00:34:12;2.50;;;1.10;;
9166;SDS011;4618;48.818;9.088;2023-01-10T00:36:38;1.07;;;0.80;;
9166;SDS011;4618;48.818;9.088;2023-01-10T00:39:04;0.80;;;0.80;;
9166;SDS011;4618;48.818;9.088;2023-01-10T00:41:30;1.10;;;1.00;;
9166;SDS011;4618;48.818;9.088;2023-01-10T00:44:14;1.30;;;1.20;;
9166;SDS011;4618;48.818;9.088;2023-01-10T00:46:39;0.90;;;0.90;;
9166;SDS011;4618;48.818;9.088;2023-01-10T00:49:05;1.20;;;1.10;;
9166;SDS011;4618;48.818;9.088;2023-01-10T00:51:32;1.30;;;1.20;;
9166;SDS011;4618;48.818;9.088;2023-01-10T00:53:58;1.80;;;1.60;;
9166;SDS011;4618;48.818;9.088;2023-01-10T00:56:24;1.30;;;1.20;;
9166;SDS011;4618;48.818;9.088;2023-01-10T00:58:49;1.40;;;1.30;;
9166;SDS011;4618;48.818;9.088;2023-01-10T01:01:15;2.30;;;1.60;;
9166;SDS011;4618;48.818;9.088;2023-01-10T01:03:40;2.57;;;1.50;;
9166;SDS011;4618;48.818;9.088;2023-01-10T01:06:06;1.33;;;0.93;;
9166;SDS011;4618;48.818;9.088;2023-01-10T01:08:32;1.57;;;1.20;;
9166;SDS011;4618;48.818;9.088;2023-01-10T01:10:58;0.70;;;0.70;;
9166;SDS011;4618;48.818;9.088;2023-01-10T01:13:24;1.13;;;0.70;;
9166;SDS011;4618;48.818;9.088;2023-01-10T01:15:49;2.03;;;0.70;;
9166;SDS011;4618;48.818;9.088;2023-01-10T01:18:17;2.30;;;0.80;;
9166;SDS011;4618;48.818;9.088;2023-01-10T01:20:45;0.63;;;0.60;;
9166;SDS011;4618;48.818;9.088;2023-01-10T01:23:14;1.13;;;0.60;;
9166;SDS011;4618;48.818;9.088;2023-01-10T01:25:40;0.50;;;0.50;;
9166;SDS011;4618;48.818;9.088;2023-01-10T01:28:06;0.60;;;0.60;;
9166;SDS011;4618;48.818;9.088;2023-01-10T01:30:33;1.93;;;0.63;;
9166;SDS011;4618;48.818;9.088;2023-01-10T01:32:58;1.33;;;0.40;;
9166;SDS011;4618;48.818;9.088;2023-01-10T01:35:24;0.87;;;0.40;;
9166;SDS011;4618;48.818;9.088;2023-01-10T01:37:49;0.47;;;0.47;;
9166;SDS011;4618;48.818;9.088;2023-01-10T01:40:16;0.47;;;0.47;;
9166;SDS011;4618;48.818;9.088;2023-01-10T01:42:46;0.57;;;0.40;;
9166;SDS011;4618;48.818;9.088;2023-01-10T01:47:42;0.30;;;0.30;;
9166;SDS011;4618;48.818;9.088;2023-01-10T01:53:27;0.40;;;0.40;;
9166;SDS011;4618;48.818;9.088;2023-01-10T01:55:55;0.77;;;0.50;;
9166;SDS011;4618;48.818;9.088;2023-01-10T01:58:27;0.67;;;0.50;;
9166;SDS011;4618;48.818;9.088;2023-01-10T02:01:05;2.20;;;0.50;;
9166;SDS011;4618;48.818;9.088;2023-01-10T02:03:31;0.40;;;0.40;;
9166;SDS011;4618;48.818;9.088;2023-01-10T02:05:57;0.93;;;0.70;;
9166;SDS011;4618;48.818;9.088;2023-01-10T02:08:23;0.87;;;0.60;;
9166;SDS011;4618;48.818;9.088;2023-01-10T02:13:33;0.60;;;0.60;;
9166;SDS011;4618;48.818;9.088;2023-01-10T02:15:59;1.40;;;0.80;;
9166;SDS011;4618;48.818;9.088;2023-01-10T02:18:25;1.70;;;0.87;;
9166;SDS011;4618;48.818;9.088;2023-01-10T02:21:02;2.50;;;0.83;;
9166;SDS011;4618;48.818;9.088;2023-01-10T02:26:33;1.03;;;0.90;;
9166;SDS011;4618;48.818;9.088;2023-01-10T02:40:21;1.53;;;0.70;;
9166;SDS011;4618;48.818;9.088;2023-01-10T02:42:57;1.00;;;0.80;;
9166;SDS011;4618;48.818;9.088;2023-01-10T02:45:32;1.43;;;1.20;;
9166;SDS011;4618;48.818;9.088;2023-01-10T02:48:04;2.37;;;0.90;;
9166;SDS011;4618;48.818;9.088;2023-01-10T02:53:10;3.10;;;1.00;;
9166;SDS011;4618;48.818;9.088;2023-01-10T03:01:23;6.33;;;1.30;;
9166;SDS011;4618;48.818;9.088;2023-01-10T03:03:56;2.80;;;1.00;;
9166;SDS011;4618;48.818;9.088;2023-01-10T03:06:42;4.67;;;1.33;;
9166;SDS011;4618;48.818;9.088;2023-01-10T03:11:41;2.43;;;1.47;;
9166;SDS011;4618;48.818;9.088;2023-01-10T03:14:13;2.10;;;1.60;;
9166;SDS011;4618;48.818;9.088;2023-01-10T03:16:44;5.07;;;1.90;;
9166;SDS011;4618;48.818;9.088;2023-01-10T03:19:14;3.60;;;1.83;;
9166;SDS011;4618;48.818;9.088;2023-01-10T03:21:43;4.00;;;2.00;;
9166;SDS011;4618;48.818;9.088;2023-01-10T03:24:12;2.07;;;1.87;;
9166;SDS011;4618;48.818;9.088;2023-01-10T03:26:52;7.17;;;2.10;;
9166;SDS011;4618;48.818;9.088;2023-01-10T03:29:27;3.90;;;2.10;;
9166;SDS011;4618;48.818;9.088;2023-01-10T03:31:59;4.87;;;2.43;;
9166;SDS011;4618;48.818;9.088;2023-01-10T03:34:29;4.17;;;2.37;;
9166;SDS011;4618;48.818;9.088;2023-01-10T03:36:58;3.13;;;1.97;;
9166;SDS011;4618;48.818;9.088;2023-01-10T03:39:34;4.07;;;1.83;;
9166;SDS011;4618;48.818;9.088;2023-01-10T03:42:10;5.47;;;1.80;;
9166;SDS011;4618;48.818;9.088;2023-01-10T03:45:05;3.77;;;1.60;;
9166;SDS011;4618;48.818;9.088;2023-01-10T03:47:41;4.83;;;1.80;;
9166;SDS011;4618;48.818;9.088;2023-01-10T03:52:41;3.20;;;1.60;;
9166;SDS011;4618;48.818;9.088;2023-01-10T03:55:12;3.83;;;1.43;;
9166;SDS011;4618;48.818;9.088;2023-01-10T03:57:43;1.40;;;1.30;;
9166;SDS011;4618;48.818;9.088;2023-01-10T04:00:13;4.53;;;1.50;;
9166;SDS011;4618;48.818;9.088;2023-01-10T04:02:40;3.67;;;1.50;;
9166;SDS011;4618;48.818;9.088;2023-01-10T04:05:05;2.30;;;1.53;;
9166;SDS011;4618;48.818;9.088;2023-01-10T04:07:31;5.37;;;1.60;;
9166;SDS011;4618;48.818;9.088;2023-01-10T04:09:57;4.13;;;1.27;;
9166;SDS011;4618;48.818;9.088;2023-01-10T04:12:22;3.53;;;1.40;;
9166;SDS011;4618;48.818;9.088;2023-01-10T04:14:48;2.63;;;1.53;;
9166;SDS011;4618;48.818;9.088;2023-01-10T04:17:15;4.33;;;1.60;;
9166;SDS011;4618;48.818;9.088;2023-01-10T04:19:41;6.03;;;2.03;;
9166;SDS011;4618;48.818;9.088;2023-01-10T04:22:07;4.90;;;1.60;;
9166;SDS011;4618;48.818;9.088;2023-01-10T04:24:33;5.90;;;1.73;;
9166;SDS011;4618;48.818;9.088;2023-01-10T04:26:59;7.93;;;2.10;;
9166;SDS011;4618;48.818;9.088;2023-01-10T04:29:24;3.80;;;1.87;;
9166;SDS011;4618;48.818;9.088;2023-01-10T04:31:51;8.30;;;2.00;;
9166;SDS011;4618;48.818;9.088;2023-01-10T04:34:17;7.23;;;2.23;;
9166;SDS011;4618;48.818;9.088;2023-01-10T04:36:44;7.77;;;2.17;;
9166;SDS011;4618;48.818;9.088;2023-01-10T04:39:10;4.30;;;1.60;;
9166;SDS011;4618;48.818;9.088;2023-01-10T04:41:36;5.73;;;1.83;;
9166;SDS011;4618;48.818;9.088;2023-01-10T04:44:01;5.10;;;1.70;;
9166;SDS011;4618;48.818;9.088;2023-01-10T04:46:27;3.30;;;1.77;;
9166;SDS011;4618;48.818;9.088;2023-01-10T04:48:53;4.03;;;1.60;;
9166;SDS011;4618;48.818;9.088;2023-01-10T04:51:19;4.27;;;1.80;;
9166;SDS011;4618;48.818;9.088;2023-01-10T04:53:45;6.73;;;1.87;;
9166;SDS011;4618;48.818;9.088;2023-01-10T04:56:14;8.13;;;2.17;;
9166;SDS011;4618;48.818;9.088;2023-01-10T04:58:41;5.57;;;2.00;;
9166;SDS011;4618;48.818;9.088;2023-01-10T05:01:08;7.80;;;2.50;;
9166;SDS011;4618;48.818;9.088;2023-01-10T05:03:35;5.20;;;1.80;;
9166;SDS011;4618;48.818;9.088;2023-01-10T05:06:01;6.47;;;2.07;;
9166;SDS011;4618;48.818;9.088;2023-01-10T05:08:28;5.43;;;1.70;;
9166;SDS011;4618;48.818;9.088;2023-01-10T05:10:53;6.93;;;2.27;;
9166;SDS011;4618;48.818;9.088;2023-01-10T05:13:19;8.20;;;2.63;;
9166;SDS011;4618;48.818;9.088;2023-01-10T05:15:44;11.07;;;2.60;;
9166;SDS011;4618;48.818;9.088;2023-01-10T05:18:10;9.57;;;2.10;;
9166;SDS011;4618;48.818;9.088;2023-01-10T05:20:35;4.87;;;1.47;;
9166;SDS011;4618;48.818;9.088;2023-01-10T05:23:01;4.40;;;1.40;;
9166;SDS011;4618;48.818;9.088;2023-01-10T05:25:26;6.43;;;2.07;;
9166;SDS011;4618;48.818;9.088;2023-01-10T05:27:52;8.43;;;2.23;;
9166;SDS011;4618;48.818;9.088;2023-01-10T05:30:18;6.87;;;2.13;;
9166;SDS011;4618;48.818;9.088;2023-01-10T05:32:43;10.77;;;2.53;;
9166;SDS011;4618;48.818;9.088;2023-01-10T05:35:09;10.00;;;2.20;;
9166;SDS011;4618;48.818;9.088;2023-01-10T05:37:34;7.60;;;2.13;;
9166;SDS011;4618;48.818;9.088;2023-01-10T05:40:00;6.00;;;1.53;;
9166;SDS011;4618;48.818;9.088;2023-01-10T05:42:26;7.47;;;1.93;;
9166;SDS011;4618;48.818;9.088;2023-01-10T05:44:51;8.37;;;2.13;;
9166;SDS011;4618;48.818;9.088;2023-01-10T05:47:17;10.40;;;2.43;;
9166;SDS011;4618;48.818;9.088;2023-01-10T05:49:42;8.30;;;1.60;;
9166;SDS011;4618;48.818;9.088;2023-01-10T05:52:08;8.83;;;1.67;;
9166;SDS011;4618;48.818;9.088;2023-01-10T05:54:33;11.17;;;1.87;;
9166;SDS011;4618;48.818;9.088;2023-01-10T05:56:59;8.07;;;1.60;;
9166;SDS011;4618;48.818;9.088;2023-01-10T05:59:25;5.43;;;1.90;;
9166;SDS011;4618;48.818;9.088;2023-01-10T06:01:50;6.80;;;1.93;;
9166;SDS011;4618;48.818;9.088;2023-01-10T06:04:16;8.10;;;1.83;;
9166;SDS011;4618;48.818;9.088;2023-01-10T06:06:41;8.40;;;1.97;;
9166;SDS011;4618;48.818;9.088;2023-01-10T06:09:07;7.03;;;1.53;;
9166;SDS011;4618;48.818;9.088;2023-01-10T06:11:32;7.10;;;1.50;;
9166;SDS011;4618;48.818;9.088;2023-01-10T06:14:00;8.13;;;1.67;;
9166;SDS011;4618;48.818;9.088;2023-01-10T06:16:26;7.67;;;1.63;;
9166;SDS011;4618;48.818;9.088;2023-01-10T06:18:52;5.03;;;1.17;;
9166;SDS011;4618;48.818;9.088;2023-01-10T06:21:18;5.83;;;2.03;;
9166;SDS011;4618;48.818;9.088;2023-01-10T06:23:44;8.90;;;1.93;;
9166;SDS011;4618;48.818;9.088;2023-01-10T06:26:09;7.00;;;1.47;;
9166;SDS011;4618;48.818;9.088;2023-01-10T06:28:35;6.80;;;1.60;;
9166;SDS011;4618;48.818;9.088;2023-01-10T06:31:01;8.37;;;1.73;;
9166;SDS011;4618;48.818;9.088;2023-01-10T06:33:27;8.07;;;1.43;;
9166;SDS011;4618;48.818;9.088;2023-01-10T06:35:52;7.50;;;1.73;;
9166;SDS011;4618;48.818;9.088;2023-01-10T06:38:18;8.40;;;1.83;;
9166;SDS011;4618;48.818;9.088;2023-01-10T06:40:43;5.07;;;1.23;;
9166;SDS011;4618;48.818;9.088;2023-01-10T06:43:09;6.13;;;1.30;;
9166;SDS011;4618;48.818;9.088;2023-01-10T06:45:34;5.27;;;1.70;;
9166;SDS011;4618;48.818;9.088;2023-01-10T06:48:00;8.20;;;1.90;;
9166;SDS011;4618;48.818;9.088;2023-01-10T06:50:26;4.63;;;1.80;;
9166;SDS011;4618;48.818;9.088;2023-01-10T06:52:55;5.93;;;1.40;;
9166;SDS011;4618;48.818;9.088;2023-01-10T06:55:22;8.90;;;1.30;;
9166;SDS011;4618;48.818;9.088;2023-01-10T06:57:47;9.10;;;1.60;;
9166;SDS011;4618;48.818;9.088;2023-01-10T07:00:13;6.20;;;1.70;;
9166;SDS011;4618;48.818;9.088;2023-01-10T07:02:39;6.93;;;1.60;;
9166;SDS011;4618;48.818;9.088;2023-01-10T07:05:04;7.40;;;1.70;;
9166;SDS011;4618;48.818;9.088;2023-01-10T07:07:30;6.90;;;1.60;;
9166;SDS011;4618;48.818;9.088;2023-01-10T07:09:56;8.90;;;2.17;;
9166;SDS011;4618;48.818;9.088;2023-01-10T07:12:23;8.87;;;1.77;;
9166;SDS011;4618;48.818;9.088;2023-01-10T07:14:49;8.93;;;1.67;;
9166;SDS011;4618;48.818;9.088;2023-01-10T07:17:14;8.23;;;1.40;;
9166;SDS011;4618;48.818;9.088;2023-01-10T07:19:40;5.67;;;1.50;;
9166;SDS011;4618;48.818;9.088;2023-01-10T07:22:05;7.40;;;1.50;;
9166;SDS011;4618;48.818;9.088;2023-01-10T07:24:31;7.03;;;1.90;;
9166;SDS011;4618;48.818;9.088;2023-01-10T07:26:56;5.40;;;1.57;;
9166;SDS011;4618;48.818;9.088;2023-01-10T07:29:22;4.50;;;1.60;;
9166;SDS011;4618;48.818;9.088;2023-01-10T07:31:47;7.47;;;1.67;;
9166;SDS011;4618;48.818;9.088;2023-01-10T07:34:13;6.20;;;1.77;;
9166;SDS011;4618;48.818;9.088;2023-01-10T07:36:38;8.23;;;1.90;;
9166;SDS011;4618;48.818;9.088;2023-01-10T07:39:04;7.83;;;1.90;;
9166;SDS011;4618;48.818;9.088;2023-01-10T07:41:30;7.67;;;1.83;;
9166;SDS011;4618;48.818;9.088;2023-01-10T07:43:55;6.70;;;1.60;;
9166;SDS011;4618;48.818;9.088;2023-01-10T07:46:21;7.70;;;1.43;;
9166;SDS011;4618;48.818;9.088;2023-01-10T07:48:46;7.20;;;1.80;;
9166;SDS011;4618;48.818;9.088;2023-01-10T07:51:13;8.97;;;1.87;;
9166;SDS011;4618;48.818;9.088;2023-01-10T07:53:38;8.17;;;2.17;;
9166;SDS011;4618;48.818;9.088;2023-01-10T07:56:04;8.37;;;1.73;;
9166;SDS011;4618;48.818;9.088;2023-01-10T07:58:30;9.50;;;1.90;;
9166;SDS011;4618;48.818;9.088;2023-01-10T08:01:00;6.27;;;1.67;;
9166;SDS011;4618;48.818;9.088;2023-01-10T08:03:27;8.10;;;2.07;;
9166;SDS011;4618;48.818;9.088;2023-01-10T08:05:57;7.33;;;2.10;;
9166;SDS011;4618;48.818;9.088;2023-01-10T08:08:30;8.73;;;2.00;;
9166;SDS011;4618;48.818;9.088;2023-01-10T08:10:57;7.23;;;1.67;;
9166;SDS011;4618;48.818;9.088;2023-01-10T08:13:23;7.33;;;1.77;;
9166;SDS011;4618;48.818;9.088;2023-01-10T08:15:49;9.03;;;1.77;;
9166;SDS011;4618;48.818;9.088;2023-01-10T08:18:16;8.60;;;1.93;;
9166;SDS011;4618;48.818;9.088;2023-01-10T08:20:43;6.60;;;1.87;;
9166;SDS011;4618;48.818;9.088;2023-01-10T08:23:11;6.87;;;1.50;;
9166;SDS011;4618;48.818;9.088;2023-01-10T08:25:36;7.77;;;2.33;;
9166;SDS011;4618;48.818;9.088;2023-01-10T08:28:02;6.50;;;1.70;;
9166;SDS011;4618;48.818;9.088;2023-01-10T08:30:27;7.93;;;2.07;;
9166;SDS011;4618;48.818;9.088;2023-01-10T08:32:53;7.27;;;2.10;;
9166;SDS011;4618;48.818;9.088;2023-01-10T08:35:18;9.60;;;2.30;;
9166;SDS011;4618;48.818;9.088;2023-01-10T08:37:44;4.80;;;2.00;;
9166;SDS011;4618;48.818;9.088;2023-01-10T08:40:10;5.60;;;1.43;;
9166;SDS011;4618;48.818;9.088;2023-01-10T08:42:35;5.50;;;1.50;;
9166;SDS011;4618;48.818;9.088;2023-01-10T08:45:01;5.90;;;1.70;;
9166;SDS011;4618;48.818;9.088;2023-01-10T08:47:27;7.97;;;1.67;;
9166;SDS011;4618;48.818;9.088;2023-01-10T08:49:53;5.03;;;1.63;;
9166;SDS011;4618;48.818;9.088;2023-01-10T08:52:19;3.83;;;1.80;;
9166;SDS011;4618;48.818;9.088;2023-01-10T08:54:44;6.30;;;1.50;;
9166;SDS011;4618;48.818;9.088;2023-01-10T08:57:10;7.30;;;1.97;;
9166;SDS011;4618;48.818;9.088;2023-01-10T08:59:36;9.57;;;2.30;;
9166;SDS011;4618;48.818;9.088;2023-01-10T09:02:02;8.47;;;2.00;;
9166;SDS011;4618;48.818;9.088;2023-01-10T09:04:28;8.37;;;1.73;;
9166;SDS011;4618;48.818;9.088;2023-01-10T09:06:55;7.30;;;2.00;;
9166;SDS011;4618;48.818;9.088;2023-01-10T09:09:21;5.23;;;2.17;;
9166;SDS011;4618;48.818;9.088;2023-01-10T09:11:47;6.93;;;1.80;;
9166;SDS011;4618;48.818;9.088;2023-01-10T09:14:12;6.63;;;1.80;;
9166;SDS011;4618;48.818;9.088;2023-01-10T09:16:39;8.43;;;1.83;;
9166;SDS011;4618;48.818;9.088;2023-01-10T09:19:04;5.43;;;1.70;;
9166;SDS011;4618;48.818;9.088;2023-01-10T09:21:30;6.07;;;1.93;;
9166;SDS011;4618;48.818;9.088;2023-01-10T09:23:56;7.37;;;1.77;;
9166;SDS011;4618;48.818;9.088;2023-01-10T09:26:21;4.60;;;1.40;;
9166;SDS011;4618;48.818;9.088;2023-01-10T09:28:47;6.47;;;1.90;;
9166;SDS011;4618;48.818;9.088;2023-01-10T09:31:13;7.83;;;1.67;;
9166;SDS011;4618;48.818;9.088;2023-01-10T09:33:39;7.53;;;1.90;;
9166;SDS011;4618;48.818;9.088;2023-01-10T09:36:06;6.13;;;1.50;;
9166;SDS011;4618;48.818;9.088;2023-01-10T09:38:33;6.40;;;1.50;;
9166;SDS011;4618;48.818;9.088;2023-01-10T09:44:04;3.50;;;1.27;;
9166;SDS011;4618;48.818;9.088;2023-01-10T09:49:49;3.50;;;1.30;;
9166;SDS011;4618;48.818;9.088;2023-01-10T09:52:23;5.77;;;1.40;;
9166;SDS011;4618;48.818;9.088;2023-01-10T09:54:54;6.93;;;1.47;;
9166;SDS011;4618;48.818;9.088;2023-01-10T09:57:21;5.33;;;1.30;;
9166;SDS011;4618;48.818;9.088;2023-01-10T09:59:48;4.43;;;1.20;;
9166;SDS011;4618;48.818;9.088;2023-01-10T10:07:40;4.93;;;1.20;;
9166;SDS011;4618;48.818;9.088;2023-01-10T10:10:06;8.80;;;1.30;;
9166;SDS011;4618;48.818;9.088;2023-01-10T10:12:47;5.50;;;1.30;;
9166;SDS011;4618;48.818;9.088;2023-01-10T10:24:47;7.10;;;1.53;;
9166;SDS011;4618;48.818;9.088;2023-01-10T10:26:54;7.57;;;1.90;;
9166;SDS011;4618;48.818;9.088;2023-01-10T10:29:40;5.47;;;1.60;;
9166;SDS011;4618;48.818;9.088;2023-01-10T10:35:12;5.67;;;1.30;;
9166;SDS011;4618;48.818;9.088;2023-01-10T10:37:48;5.50;;;1.57;;
9166;SDS011;4618;48.818;9.088;2023-01-10T10:40:17;3.93;;;1.37;;
9166;SDS011;4618;48.818;9.088;2023-01-10T10:42:49;3.20;;;1.30;;
9166;SDS011;4618;48.818;9.088;2023-01-10T10:45:21;3.57;;;1.10;;
9166;SDS011;4618;48.818;9.088;2023-01-10T10:48:09;4.30;;;1.50;;
9166;SDS011;4618;48.818;9.088;2023-01-10T10:53:30;4.93;;;1.80;;
9166;SDS011;4618;48.818;9.088;2023-01-10T10:55:57;5.07;;;1.70;;
9166;SDS011;4618;48.818;9.088;2023-01-10T10:58:24;4.27;;;1.50;;
9166;SDS011;4618;48.818;9.088;2023-01-10T11:00:50;5.20;;;1.30;;
9166;SDS011;4618;48.818;9.088;2023-01-10T11:06:06;6.60;;;1.40;;
9166;SDS011;4618;48.818;9.088;2023-01-10T11:08:34;7.40;;;1.60;;
9166;SDS011;4618;48.818;9.088;2023-01-10T11:11:05;6.00;;;1.07;;
9166;SDS011;4618;48.818;9.088;2023-01-10T11:13:55;3.87;;;1.40;;
9166;SDS011;4618;48.818;9.088;2023-01-10T11:16:25;5.53;;;2.00;;
9166;SDS011;4618;48.818;9.088;2023-01-10T11:21:46;3.90;;;1.00;;
9166;SDS011;4618;48.818;9.088;2023-01-10T11:24:22;4.13;;;1.20;;
9166;SDS011;4618;48.818;9.088;2023-01-10T11:26:58;5.53;;;1.00;;
9166;SDS011;4618;48.818;9.088;2023-01-10T11:29:28;3.97;;;1.40;;
9166;SDS011;4618;48.818;9.088;2023-01-10T11:31:55;3.00;;;1.07;;
9166;SDS011;4618;48.818;9.088;2023-01-10T11:34:24;7.10;;;1.60;;
9166;SDS011;4618;48.818;9.088;2023-01-10T11:36:54;4.40;;;1.33;;
9166;SDS011;4618;48.818;9.088;2023-01-10T11:39:26;4.07;;;1.00;;
9166;SDS011;4618;48.818;9.088;2023-01-10T11:41:52;5.20;;;1.20;;
9166;SDS011;4618;48.818;9.088;2023-01-10T11:46:46;3.70;;;1.03;;
9166;SDS011;4618;48.818;9.088;2023-01-10T11:49:14;7.80;;;1.30;;
9166;SDS011;4618;48.818;9.088;2023-01-10T11:52:05;4.40;;;1.50;;
9166;SDS011;4618;48.818;9.088;2023-01-10T11:54:47;5.27;;;1.73;;
9166;SDS011;4618;48.818;9.088;2023-01-10T11:57:14;6.30;;;1.50;;
9166;SDS011;4618;48.818;9.088;2023-01-10T11:59:51;5.23;;;1.47;;
9166;SDS011;4618;48.818;9.088;2023-01-10T12:02:39;5.53;;;1.30;;
9166;SDS011;4618;48.818;9.088;2023-01-10T12:05:08;5.20;;;1.37;;
9166;SDS011;4618;48.818;9.088;2023-01-10T12:07:56;5.40;;;1.33;;
9166;SDS011;4618;48.818;9.088;2023-01-10T12:10:24;2.50;;;1.17;;
9166;SDS011;4618;48.818;9.088;2023-01-10T12:12:53;5.27;;;1.30;;
9166;SDS011;4618;48.818;9.088;2023-01-10T12:15:26;6.63;;;1.10;;
9166;SDS011;4618;48.818;9.088;2023-01-10T12:17:56;4.23;;;1.27;;
9166;SDS011;4618;48.818;9.088;2023-01-10T12:20:28;6.53;;;0.83;;
9166;SDS011;4618;48.818;9.088;2023-01-10T12:22:59;3.50;;;0.90;;
9166;SDS011;4618;48.818;9.088;2023-01-10T12:25:34;4.90;;;1.23;;
9166;SDS011;4618;48.818;9.088;2023-01-10T12:28:02;5.80;;;1.20;;
9166;SDS011;4618;48.818;9.088;2023-01-10T12:30:38;4.97;;;1.17;;
9166;SDS011;4618;48.818;9.088;2023-01-10T12:33:14;3.73;;;1.13;;
9166;SDS011;4618;48.818;9.088;2023-01-10T12:35:50;3.43;;;0.87;;
9166;SDS011;4618;48.818;9.088;2023-01-10T12:38:34;5.47;;;1.17;;
9166;SDS011;4618;48.818;9.088;2023-01-10T12:41:28;3.77;;;1.07;;
9166;SDS011;4618;48.818;9.088;2023-01-10T12:49:53;3.43;;;0.87;;
9166;SDS011;4618;48.818;9.088;2023-01-10T12:52:31;3.90;;;1.10;;
9166;SDS011;4618;48.818;9.088;2023-01-10T12:55:21;7.47;;;1.63;;
9166;SDS011;4618;48.818;9.088;2023-01-10T12:57:49;5.43;;;1.10;;
9166;SDS011;4618;48.818;9.088;2023-01-10T13:00:21;3.40;;;0.80;;
9166;SDS011;4618;48.818;9.088;2023-01-10T13:02:54;6.73;;;1.13;;
9166;SDS011;4618;48.818;9.088;2023-01-10T13:05:23;5.30;;;1.33;;
9166;SDS011;4618;48.818;9.088;2023-01-10T13:07:54;2.63;;;0.90;;
9166;SDS011;4618;48.818;9.088;2023-01-10T13:10:27;5.27;;;1.23;;
9166;SDS011;4618;48.818;9.088;2023-01-10T13:12:56;2.23;;;0.70;;
9166;SDS011;4618;48.818;9.088;2023-01-10T13:15:33;6.17;;;1.77;;
9166;SDS011;4618;48.818;9.088;2023-01-10T13:20:43;3.77;;;0.80;;
9166;SDS011;4618;48.818;9.088;2023-01-10T13:23:14;7.37;;;1.37;;
9166;SDS011;4618;48.818;9.088;2023-01-10T13:25:57;3.10;;;1.07;;
9166;SDS011;4618;48.818;9.088;2023-01-10T13:28:26;3.13;;;0.97;;
9166;SDS011;4618;48.818;9.088;2023-01-10T13:30:54;2.13;;;0.70;;
9166;SDS011;4618;48.818;9.088;2023-01-10T13:33:32;5.33;;;1.27;;
9166;SDS011;4618;48.818;9.088;2023-01-10T13:36:20;10.97;;;1.43;;
9166;SDS011;4618;48.818;9.088;2023-01-10T13:38:50;4.33;;;0.90;;
9166;SDS011;4618;48.818;9.088;2023-01-10T13:41:21;2.43;;;0.93;;
9166;SDS011;4618;48.818;9.088;2023-01-10T13:46:32;5.17;;;0.90;;
9166;SDS011;4618;48.818;9.088;2023-01-10T13:49:20;3.67;;;0.87;;
9166;SDS011;4618;48.818;9.088;2023-01-10T13:54:58;3.13;;;1.07;;
9166;SDS011;4618;48.818;9.088;2023-01-10T14:00:22;3.47;;;1.13;;
9166;SDS011;4618;48.818;9.088;2023-01-10T14:03:41;2.93;;;1.07;;
9166;SDS011;4618;48.818;9.088;2023-01-10T14:06:20;3.27;;;1.00;;
9166;SDS011;4618;48.818;9.088;2023-01-10T14:09:05;3.23;;;0.80;;
9166;SDS011;4618;48.818;9.088;2023-01-10T14:12:00;3.77;;;0.90;;
9166;SDS011;4618;48.818;9.088;2023-01-10T14:14:30;6.03;;;1.20;;
9166;SDS011;4618;48.818;9.088;2023-01-10T14:17:14;2.90;;;1.10;;
9166;SDS011;4618;48.818;9.088;2023-01-10T14:19:59;3.80;;;0.93;;
9166;SDS011;4618;48.818;9.088;2023-01-10T14:22:28;4.33;;;1.10;;
9166;SDS011;4618;48.818;9.088;2023-01-10T14:24:57;4.23;;;1.00;;
9166;SDS011;4618;48.818;9.088;2023-01-10T14:27:24;5.67;;;1.20;;
9166;SDS011;4618;48.818;9.088;2023-01-10T14:30:02;2.60;;;0.90;;
9166;SDS011;4618;48.818;9.088;2023-01-10T14:32:34;2.80;;;1.07;;
9166;SDS011;4618;48.818;9.088;2023-01-10T14:35:04;5.37;;;1.70;;
9166;SDS011;4618;48.818;9.088;2023-01-10T14:37:34;4.43;;;1.23;;
9166;SDS011;4618;48.818;9.088;2023-01-10T14:40:05;2.40;;;0.80;;
9166;SDS011;4618;48.818;9.088;2023-01-10T14:42:48;3.77;;;1.10;;
9166;SDS011;4618;48.818;9.088;2023-01-10T14:45:27;2.70;;;1.10;;
9166;SDS011;4618;48.818;9.088;2023-01-10T14:47:54;4.57;;;1.00;;
9166;SDS011;4618;48.818;9.088;2023-01-10T14:50:29;2.23;;;0.70;;
9166;SDS011;4618;48.818;9.088;2023-01-10T14:52:56;4.20;;;0.90;;
9166;SDS011;4618;48.818;9.088;2023-01-10T14:55:23;5.00;;;0.90;;
9166;SDS011;4618;48.818;9.088;2023-01-10T14:57:55;5.37;;;1.00;;
9166;SDS011;4618;48.818;9.088;2023-01-10T15:00:24;3.27;;;1.03;;
9166;SDS011;4618;48.818;9.088;2023-01-10T15:02:53;5.83;;;1.30;;
9166;SDS011;4618;48.818;9.088;2023-01-10T15:05:23;5.07;;;1.13;;
9166;SDS011;4618;48.818;9.088;2023-01-10T15:07:53;4.90;;;1.10;;
9166;SDS011;4618;48.818;9.088;2023-01-10T15:10:21;2.73;;;0.90;;
9166;SDS011;4618;48.818;9.088;2023-01-10T15:12:59;2.57;;;1.10;;
9166;SDS011;4618;48.818;9.088;2023-01-10T15:15:33;3.70;;;1.00;;
9166;SDS011;4618;48.818;9.088;2023-01-10T15:18:02;4.17;;;1.37;;
9166;SDS011;4618;48.818;9.088;2023-01-10T15:20:35;5.83;;;1.80;;
9166;SDS011;4618;48.818;9.088;2023-01-10T15:23:01;4.03;;;0.90;;
9166;SDS011;4618;48.818;9.088;2023-01-10T15:25:34;4.03;;;1.20;;
9166;SDS011;4618;48.818;9.088;2023-01-10T15:28:02;4.13;;;1.10;;
9166;SDS011;4618;48.818;9.088;2023-01-10T15:30:34;6.03;;;1.30;;
9166;SDS011;4618;48.818;9.088;2023-01-10T15:33:05;5.57;;;1.07;;
9166;SDS011;4618;48.818;9.088;2023-01-10T15:35:36;5.37;;;1.10;;
9166;SDS011;4618;48.818;9.088;2023-01-10T15:38:10;5.47;;;1.40;;
9166;SDS011;4618;48.818;9.088;2023-01-10T15:40:41;6.50;;;1.43;;
9166;SDS011;4618;48.818;9.088;2023-01-10T15:43:11;5.33;;;1.30;;
9166;SDS011;4618;48.818;9.088;2023-01-10T15:45:48;4.50;;;1.30;;
9166;SDS011;4618;48.818;9.088;2023-01-10T15:48:34;5.17;;;1.20;;
9166;SDS011;4618;48.818;9.088;2023-01-10T15:51:14;3.63;;;1.17;;
9166;SDS011;4618;48.818;9.088;2023-01-10T15:53:59;6.13;;;1.33;;
9166;SDS011;4618;48.818;9.088;2023-01-10T15:59:25;8.30;;;1.40;;
9166;SDS011;4618;48.818;9.088;2023-01-10T16:02:28;5.33;;;1.10;;
9166;SDS011;4618;48.818;9.088;2023-01-10T16:04:48;5.83;;;1.37;;
9166;SDS011;4618;48.818;9.088;2023-01-10T16:09:49;6.00;;;1.90;;
9166;SDS011;4618;48.818;9.088;2023-01-10T16:12:33;3.10;;;1.23;;
9166;SDS011;4618;48.818;9.088;2023-01-10T16:15:20;3.60;;;1.27;;
9166;SDS011;4618;48.818;9.088;2023-01-10T16:17:48;4.83;;;1.30;;
9166;SDS011;4618;48.818;9.088;2023-01-10T16:20:16;5.37;;;1.70;;
9166;SDS011;4618;48.818;9.088;2023-01-10T16:22:43;4.50;;;1.20;;
9166;SDS011;4618;48.818;9.088;2023-01-10T16:25:14;5.00;;;1.20;;
9166;SDS011;4618;48.818;9.088;2023-01-10T16:27:43;5.27;;;1.27;;
9166;SDS011;4618;48.818;9.088;2023-01-10T16:30:28;6.13;;;1.50;;
9166;SDS011;4618;48.818;9.088;2023-01-10T16:32:56;4.70;;;1.20;;
9166;SDS011;4618;48.818;9.088;2023-01-10T16:35:24;7.97;;;1.60;;
9166;SDS011;4618;48.818;9.088;2023-01-10T16:37:52;7.33;;;1.50;;
9166;SDS011;4618;48.818;9.088;2023-01-10T16:40:26;6.20;;;1.60;;
9166;SDS011;4618;48.818;9.088;2023-01-10T16:42:54;5.27;;;1.80;;
9166;SDS011;4618;48.818;9.088;2023-01-10T16:45:38;7.07;;;1.70;;
9166;SDS011;4618;48.818;9.088;2023-01-10T16:48:05;6.30;;;1.60;;
9166;SDS011;4618;48.818;9.088;2023-01-10T16:50:31;3.03;;;1.00;;
9166;SDS011;4618;48.818;9.088;2023-01-10T16:52:57;6.93;;;1.33;;
9166;SDS011;4618;48.818;9.088;2023-01-10T16:55:28;8.40;;;1.43;;
9166;SDS011;4618;48.818;9.088;2023-01-10T16:58:01;4.00;;;1.20;;
9166;SDS011;4618;48.818;9.088;2023-01-10T17:00:27;3.80;;;1.37;;
9166;SDS011;4618;48.818;9.088;2023-01-10T17:02:52;5.53;;;1.20;;
9166;SDS011;4618;48.818;9.088;2023-01-10T17:05:18;5.73;;;1.87;;